createdAt,value
2023-11-05T00:00:48.518Z,12.44
2023-11-05T00:03:17.523Z,12.46
2023-11-05T00:05:44.588Z,12.49
2023-11-05T00:08:11.623Z,12.52
2023-11-05T00:10:39.663Z,12.52
2023-11-05T00:13:06.896Z,12.54
2023-11-05T00:15:33.994Z,12.50
2023-11-05T00:18:01.330Z,12.35
2023-11-05T00:20:28.551Z,12.25
2023-11-05T00:22:55.636Z,12.33
2023-11-05T00:25:22.880Z,12.34
2023-11-05T00:27:50.041Z,12.33
2023-11-05T00:30:17.366Z,12.36
2023-11-05T00:32:44.717Z,12.39
2023-11-05T00:35:12.227Z,12.44
2023-11-05T00:37:39.338Z,12.47
2023-11-05T00:40:10.093Z,12.50
2023-11-05T00:42:37.584Z,12.53
2023-11-05T00:45:06.707Z,12.54
2023-11-05T00:47:33.954Z,12.57
2023-11-05T00:50:01.093Z,12.61
2023-11-05T00:52:29.555Z,12.64
2023-11-05T00:54:56.669Z,12.64
2023-11-05T00:57:23.801Z,12.64
2023-11-05T00:59:54.122Z,12.63
2023-11-05T01:02:21.160Z,12.60
2023-11-05T01:04:48.524Z,12.46
2023-11-05T01:07:15.684Z,12.46
2023-11-05T01:09:45.642Z,12.46
2023-11-05T01:12:12.734Z,12.40
2023-11-05T01:14:39.797Z,12.35
2023-11-05T01:17:06.826Z,12.36
2023-11-05T01:19:34.681Z,12.37
2023-11-05T01:22:01.873Z,12.37
2023-11-05T01:24:28.849Z,12.38
2023-11-05T01:26:55.867Z,12.34
2023-11-05T01:29:24.934Z,12.36
2023-11-05T01:31:51.993Z,12.39
2023-11-05T01:34:19.086Z,12.43
2023-11-05T01:36:46.191Z,12.43
2023-11-05T01:39:13.589Z,12.45
2023-11-05T01:41:40.626Z,12.46
2023-11-05T01:44:08.298Z,12.49
2023-11-05T01:46:35.863Z,12.50
2023-11-05T01:49:06.129Z,12.47
2023-11-05T01:51:34.175Z,12.48
2023-11-05T01:54:01.717Z,12.46
2023-11-05T01:56:29.765Z,12.46
2023-11-05T01:58:58.689Z,12.46
2023-11-05T02:01:27.934Z,12.40
2023-11-05T02:03:55.475Z,12.40
2023-11-05T02:06:22.875Z,12.36
2023-11-05T02:08:50.354Z,12.29
2023-11-05T02:11:17.525Z,12.23
2023-11-05T02:13:52.717Z,12.23
2023-11-05T02:16:22.450Z,12.19
2023-11-05T02:18:50.023Z,12.25
2023-11-05T02:21:34.679Z,12.22
2023-11-05T02:24:01.779Z,12.21
2023-11-05T02:26:28.938Z,12.16
2023-11-05T02:28:59.103Z,12.15
2023-11-05T02:31:26.236Z,12.03
2023-11-05T02:33:53.367Z,11.98
2023-11-05T02:36:20.595Z,11.98
2023-11-05T02:38:47.849Z,12.02
2023-11-05T02:41:15.609Z,12.03
2023-11-05T02:43:42.878Z,12.02
2023-11-05T02:46:10.193Z,12.05
2023-11-05T02:48:37.515Z,12.06
2023-11-05T02:51:05.237Z,12.04
2023-11-05T02:53:32.425Z,12.08
2023-11-05T02:55:59.433Z,12.12
2023-11-05T02:58:26.688Z,12.15
2023-11-05T03:00:53.767Z,12.05
2023-11-05T03:03:21.400Z,12.10
2023-11-05T03:05:48.551Z,12.13
2023-11-05T03:08:15.618Z,12.14
2023-11-05T03:10:42.655Z,12.18
2023-11-05T03:13:09.732Z,12.18
2023-11-05T03:15:37.023Z,12.13
2023-11-05T03:18:04.220Z,12.15
2023-11-05T03:20:31.974Z,12.14
2023-11-05T03:22:59.098Z,12.13
2023-11-05T03:25:26.831Z,12.15
2023-11-05T03:27:53.833Z,12.15
2023-11-05T03:30:21.109Z,12.18
2023-11-05T03:32:48.344Z,12.19
2023-11-05T03:35:15.472Z,12.22
2023-11-05T03:37:42.644Z,12.21
2023-11-05T03:40:10.554Z,12.21
2023-11-05T03:42:37.685Z,12.15
2023-11-05T03:45:05.566Z,12.11
2023-11-05T03:47:33.267Z,12.11
2023-11-05T03:50:00.527Z,12.10
2023-11-05T03:52:29.935Z,12.07
2023-11-05T03:54:56.964Z,12.03
2023-11-05T03:57:24.048Z,12.03
2023-11-05T03:59:51.200Z,12.05
2023-11-05T04:02:18.230Z,12.00
2023-11-05T04:04:49.790Z,12.00
2023-11-05T04:07:17.609Z,11.99
2023-11-05T04:09:44.653Z,11.98
2023-11-05T04:12:11.966Z,12.00
2023-11-05T04:14:39.012Z,12.01
2023-11-05T04:17:06.117Z,11.98
2023-11-05T04:19:33.722Z,11.98
2023-11-05T04:22:00.848Z,11.93
2023-11-05T04:24:27.867Z,11.93
2023-11-05T04:26:54.969Z,11.92
2023-11-05T04:29:24.204Z,11.91
2023-11-05T04:31:53.467Z,11.90
2023-11-05T04:34:20.717Z,11.83
2023-11-05T04:36:47.831Z,11.79
2023-11-05T04:39:15.195Z,11.80
2023-11-05T04:41:44.623Z,11.77
2023-11-05T04:44:11.814Z,11.77
2023-11-05T04:46:42.106Z,11.68
2023-11-05T04:49:09.281Z,11.69
2023-11-05T04:51:36.298Z,11.67
2023-11-05T04:54:04.249Z,11.64
2023-11-05T04:56:31.245Z,11.63
2023-11-05T04:58:58.348Z,11.60
2023-11-05T05:01:25.390Z,11.59
2023-11-05T05:03:52.701Z,11.59
2023-11-05T05:06:21.139Z,11.51
2023-11-05T05:08:49.449Z,11.51
2023-11-05T05:11:16.756Z,11.45
2023-11-05T05:13:44.333Z,11.48
2023-11-05T05:16:13.817Z,11.46
2023-11-05T05:18:41.997Z,11.48
2023-11-05T05:21:10.763Z,11.49
2023-11-05T05:23:38.354Z,11.42
2023-11-05T05:26:06.016Z,11.43
2023-11-05T05:28:33.055Z,11.44
2023-11-05T05:31:00.087Z,11.42
2023-11-05T05:33:27.180Z,11.33
2023-11-05T05:35:55.430Z,11.33
2023-11-05T05:38:22.551Z,11.34
2023-11-05T05:40:52.745Z,11.28
2023-11-05T05:43:20.404Z,11.29
2023-11-05T05:45:47.365Z,11.30
2023-11-05T05:48:14.483Z,11.23
2023-11-05T05:50:41.675Z,11.25
2023-11-05T05:53:08.681Z,11.23
2023-11-05T05:55:35.841Z,11.20
2023-11-05T05:58:05.148Z,11.22
2023-11-05T06:00:33.005Z,11.23
2023-11-05T06:03:02.516Z,11.27
2023-11-05T06:05:30.679Z,11.25
2023-11-05T06:07:57.771Z,11.25
2023-11-05T06:10:25.219Z,11.23
2023-11-05T06:12:52.504Z,11.26
2023-11-05T06:15:21.656Z,11.28
2023-11-05T06:17:48.717Z,11.28
2023-11-05T06:20:16.068Z,11.27
2023-11-05T06:22:43.434Z,11.28
2023-11-05T06:25:11.814Z,11.28
2023-11-05T06:27:40.941Z,11.29
2023-11-05T06:30:10.575Z,11.28
2023-11-05T06:32:38.334Z,11.25
2023-11-05T06:35:06.049Z,11.23
2023-11-05T06:37:33.116Z,11.22
2023-11-05T06:40:01.614Z,11.13
2023-11-05T06:42:28.811Z,11.16
2023-11-05T06:44:55.970Z,11.19
2023-11-05T06:47:23.224Z,11.15
2023-11-05T06:49:50.398Z,10.98
2023-11-05T06:52:18.400Z,11.01
2023-11-05T06:54:45.572Z,11.03
2023-11-05T06:57:12.729Z,11.04
2023-11-05T06:59:39.858Z,11.04
2023-11-05T07:02:11.669Z,11.06
2023-11-05T07:04:38.970Z,11.09
2023-11-05T07:07:06.776Z,11.15
2023-11-05T07:09:34.214Z,11.13
2023-11-05T07:12:01.450Z,11.17
2023-11-05T07:14:28.965Z,11.22
2023-11-05T07:16:56.139Z,11.23
2023-11-05T07:19:23.464Z,11.22
2023-11-05T07:21:50.754Z,11.25
2023-11-05T07:24:18.140Z,11.27
2023-11-05T07:26:45.509Z,11.29
2023-11-05T07:29:14.989Z,11.33
2023-11-05T07:31:43.529Z,11.36
2023-11-05T07:34:12.743Z,11.36
2023-11-05T07:36:41.394Z,11.32
2023-11-05T07:39:08.727Z,11.31
2023-11-05T07:41:36.057Z,11.22
2023-11-05T07:44:03.812Z,11.31
2023-11-05T07:46:33.508Z,11.25
2023-11-05T07:49:00.840Z,11.31
2023-11-05T07:51:28.118Z,11.32
2023-11-05T07:53:55.660Z,11.42
2023-11-05T07:56:23.149Z,11.37
2023-11-05T07:58:51.929Z,11.42
2023-11-05T08:01:19.604Z,11.42
2023-11-05T08:03:46.751Z,11.45
2023-11-05T08:06:13.903Z,11.49
2023-11-05T08:08:40.997Z,11.50
2023-11-05T08:11:08.470Z,11.46
2023-11-05T08:13:35.662Z,11.50
2023-11-05T08:16:03.799Z,11.57
2023-11-05T08:18:34.097Z,11.59
2023-11-05T08:21:03.639Z,11.56
2023-11-05T08:23:30.702Z,11.59
2023-11-05T08:25:57.960Z,11.63
2023-11-05T08:28:26.628Z,11.73
2023-11-05T08:30:54.751Z,11.80
2023-11-05T08:33:22.967Z,11.86
2023-11-05T08:35:52.755Z,11.86
2023-11-05T08:38:20.054Z,11.81
2023-11-05T08:40:49.591Z,11.91
2023-11-05T08:43:17.304Z,11.87
2023-11-05T08:45:50.136Z,11.97
2023-11-05T08:48:21.428Z,11.95
2023-11-05T08:50:48.631Z,12.02
2023-11-05T08:53:15.892Z,12.08
2023-11-05T08:55:47.276Z,12.02
2023-11-05T08:58:18.211Z,12.18
2023-11-05T09:00:48.206Z,12.29
2023-11-05T09:03:15.621Z,12.29
2023-11-05T09:05:42.988Z,12.20
2023-11-05T09:08:10.522Z,12.27
2023-11-05T09:10:40.040Z,12.33
2023-11-05T09:13:07.661Z,12.36
2023-11-05T09:15:36.376Z,12.43
2023-11-05T09:18:03.734Z,12.51
2023-11-05T09:20:33.076Z,12.58
2023-11-05T09:23:02.424Z,12.61
2023-11-05T09:25:29.654Z,12.69
2023-11-05T09:27:57.284Z,12.65
2023-11-05T09:30:24.522Z,12.69
2023-11-05T09:32:51.659Z,12.73
2023-11-05T09:35:18.923Z,12.76
2023-11-05T09:37:47.629Z,12.83
2023-11-05T09:40:18.091Z,12.88
2023-11-05T09:43:06.995Z,12.97
2023-11-05T09:45:36.594Z,12.99
2023-11-05T09:48:08.539Z,12.79
2023-11-05T09:50:38.417Z,12.90
2023-11-05T09:53:16.905Z,12.89
2023-11-05T09:55:47.477Z,12.99
2023-11-05T09:58:19.154Z,12.98
2023-11-05T10:00:47.351Z,13.06
2023-11-05T10:03:15.761Z,13.01
2023-11-05T10:05:45.610Z,13.12
2023-11-05T10:08:13.573Z,13.19
2023-11-05T10:10:46.841Z,13.17
2023-11-05T10:13:15.991Z,13.28
2023-11-05T10:15:44.229Z,13.38
2023-11-05T10:18:22.892Z,13.41
2023-11-05T10:20:56.154Z,13.47
2023-11-05T10:23:25.534Z,13.50
2023-11-05T10:25:56.150Z,13.52
2023-11-05T10:28:25.357Z,13.48
2023-11-05T10:30:56.459Z,13.53
2023-11-05T10:33:25.516Z,13.52
2023-11-05T10:35:52.928Z,13.58
2023-11-05T10:38:20.947Z,13.68
2023-11-05T10:40:50.287Z,13.69
2023-11-05T10:43:18.202Z,13.76
2023-11-05T10:45:46.477Z,13.78
2023-11-05T10:48:15.522Z,13.79
2023-11-05T10:50:44.643Z,13.86
2023-11-05T10:53:12.133Z,13.92
2023-11-05T10:55:43.042Z,13.90
2023-11-05T10:58:18.735Z,13.98
2023-11-05T11:00:59.889Z,14.07
2023-11-05T11:03:28.262Z,14.14
2023-11-05T11:06:04.304Z,14.23
2023-11-05T11:08:37.665Z,14.21
2023-11-05T11:11:12.862Z,14.29
2023-11-05T11:13:53.623Z,14.35
2023-11-05T11:16:33.103Z,14.40
2023-11-05T11:19:09.519Z,14.39
2023-11-05T11:22:03.581Z,14.48
2023-11-05T11:24:41.687Z,14.53
2023-11-05T11:27:12.724Z,14.55
2023-11-05T11:29:46.743Z,14.60
2023-11-05T11:32:17.541Z,14.63
2023-11-05T11:34:46.348Z,14.63
2023-11-05T11:37:17.403Z,14.70
2023-11-05T11:39:44.640Z,14.72
2023-11-05T11:42:14.556Z,14.79
2023-11-05T11:44:43.480Z,14.83
2023-11-05T11:47:10.763Z,14.84
2023-11-05T11:49:40.579Z,14.81
2023-11-05T11:52:07.897Z,14.97
2023-11-05T11:54:34.980Z,15.02
2023-11-05T11:57:02.141Z,15.09
2023-11-05T11:59:29.848Z,15.15
2023-11-05T12:01:58.038Z,15.22
2023-11-05T12:04:28.287Z,15.26
2023-11-05T12:06:55.479Z,15.31
2023-11-05T12:09:25.430Z,15.37
2023-11-05T12:11:53.977Z,15.42
2023-11-05T12:14:26.561Z,15.49
2023-11-05T12:16:53.899Z,15.53
2023-11-05T12:19:22.039Z,15.52
2023-11-05T12:21:51.088Z,15.58
2023-11-05T12:24:18.563Z,15.58
2023-11-05T12:26:48.282Z,15.64
2023-11-05T12:29:16.209Z,15.67
2023-11-05T12:31:47.073Z,15.73
2023-11-05T12:34:14.373Z,15.77
2023-11-05T12:36:44.834Z,15.78
2023-11-05T12:39:12.163Z,15.85
2023-11-05T12:41:39.378Z,15.82
2023-11-05T12:44:09.960Z,15.84
2023-11-05T12:46:37.184Z,15.89
2023-11-05T12:49:04.530Z,15.96
2023-11-05T12:51:34.053Z,15.96
2023-11-05T12:54:04.206Z,16.01
2023-11-05T12:56:31.901Z,16.05
2023-11-05T12:59:01.178Z,16.13
2023-11-05T13:01:28.529Z,16.18
2023-11-05T13:03:55.855Z,16.21
2023-11-05T13:08:51.828Z,16.04
2023-11-05T13:11:19.247Z,16.20
2023-11-05T13:13:46.450Z,16.29
2023-11-05T13:16:13.537Z,16.36
2023-11-05T13:18:41.188Z,16.44
2023-11-05T13:21:10.344Z,16.44
2023-11-05T13:23:37.991Z,16.44
2023-11-05T13:26:05.309Z,16.48
2023-11-05T13:29:15.629Z,16.54
2023-11-05T13:34:16.776Z,16.59
2023-11-05T13:36:45.139Z,16.52
2023-11-05T13:39:13.074Z,16.55
2023-11-05T13:41:40.143Z,16.55
2023-11-05T13:44:08.711Z,16.56
2023-11-05T13:46:37.292Z,16.54
2023-11-05T13:49:05.558Z,16.57
2023-11-05T13:51:35.803Z,16.47
2023-11-05T13:54:03.137Z,16.51
2023-11-05T13:56:31.050Z,16.52
2023-11-05T13:58:58.567Z,16.51
2023-11-05T14:01:25.998Z,16.53
2023-11-05T14:03:54.431Z,16.54
2023-11-05T14:06:21.804Z,16.60
2023-11-05T14:08:49.412Z,16.62
2023-11-05T14:11:18.456Z,16.62
2023-11-05T14:13:45.567Z,16.65
2023-11-05T14:16:14.049Z,16.67
2023-11-05T14:18:42.238Z,16.70
2023-11-05T14:21:09.475Z,16.68
2023-11-05T14:23:37.066Z,16.68
2023-11-05T14:26:04.542Z,16.68
2023-11-05T14:28:32.451Z,16.62
2023-11-05T14:30:59.582Z,16.55
2023-11-05T14:33:26.632Z,16.50
2023-11-05T14:35:53.825Z,16.41
2023-11-05T14:38:21.363Z,16.33
2023-11-05T14:40:49.680Z,16.32
2023-11-05T14:43:17.042Z,16.28
2023-11-05T14:45:47.444Z,16.22
2023-11-05T14:48:16.067Z,16.11
2023-11-05T14:50:44.947Z,16.11
2023-11-05T14:53:12.121Z,16.08
2023-11-05T14:55:39.346Z,15.95
2023-11-05T14:58:06.760Z,15.98
2023-11-05T15:00:34.270Z,15.97
2023-11-05T15:03:03.389Z,15.93
2023-11-05T15:05:31.664Z,15.90
2023-11-05T15:07:58.981Z,15.89
2023-11-05T15:10:26.095Z,15.88
2023-11-05T15:12:53.304Z,15.87
2023-11-05T15:15:21.709Z,15.83
2023-11-05T15:17:49.067Z,15.81
2023-11-05T15:20:18.437Z,15.79
2023-11-05T15:22:46.140Z,15.76
2023-11-05T15:25:13.664Z,15.73
2023-11-05T15:27:41.620Z,15.71
2023-11-05T15:30:12.737Z,15.67
2023-11-05T15:32:42.799Z,15.63
2023-11-05T15:35:10.233Z,15.60
2023-11-05T15:37:37.827Z,15.56
2023-11-05T15:40:06.237Z,15.53
2023-11-05T15:42:38.154Z,15.48
2023-11-05T15:45:05.993Z,15.43
2023-11-05T15:47:34.037Z,15.36
2023-11-05T15:50:01.180Z,15.29
2023-11-05T15:52:30.209Z,15.22
2023-11-05T15:54:57.286Z,15.17
2023-11-05T15:57:24.709Z,15.10
2023-11-05T15:59:51.934Z,15.06
2023-11-05T16:02:19.095Z,15.01
2023-11-05T16:04:46.310Z,14.95
2023-11-05T16:07:13.514Z,14.89
2023-11-05T16:09:42.330Z,14.87
2023-11-05T16:12:10.150Z,14.82
2023-11-05T16:14:40.039Z,14.78
2023-11-05T16:17:07.213Z,14.72
2023-11-05T16:19:36.068Z,14.65
2023-11-05T16:22:04.204Z,14.60
2023-11-05T16:24:31.402Z,14.54
2023-11-05T16:26:58.498Z,14.50
2023-11-05T16:29:25.737Z,14.46
2023-11-05T16:31:53.004Z,14.45
2023-11-05T16:34:20.896Z,14.43
2023-11-05T16:36:48.505Z,14.42
2023-11-05T16:39:16.735Z,14.39
2023-11-05T16:41:44.094Z,14.35
2023-11-05T16:44:11.306Z,14.29
2023-11-05T16:46:38.509Z,14.22
2023-11-05T16:49:05.835Z,14.17
2023-11-05T16:51:34.829Z,14.11
2023-11-05T16:54:02.121Z,14.06
2023-11-05T16:56:29.099Z,13.99
2023-11-05T16:58:56.244Z,13.95
2023-11-05T17:01:27.257Z,13.91
2023-11-05T17:03:56.762Z,13.89
2023-11-05T17:06:23.942Z,13.90
2023-11-05T17:08:50.988Z,13.90
2023-11-05T17:11:18.012Z,13.93
2023-11-05T17:13:47.458Z,13.94
2023-11-05T17:16:15.212Z,13.91
2023-11-05T17:18:42.502Z,13.89
2023-11-05T17:21:11.071Z,13.86
2023-11-05T17:23:38.034Z,13.84
2023-11-05T17:26:05.202Z,13.85
2023-11-05T17:28:34.448Z,13.86
2023-11-05T17:31:01.551Z,13.88
2023-11-05T17:33:29.912Z,13.87
2023-11-05T17:35:57.086Z,13.85
2023-11-05T17:38:24.168Z,13.84
2023-11-05T17:40:51.661Z,13.82
2023-11-05T17:43:19.361Z,13.79
2023-11-05T17:45:46.740Z,13.74
2023-11-05T17:48:14.110Z,13.70
2023-11-05T17:50:41.267Z,13.67
2023-11-05T17:53:08.489Z,13.66
2023-11-05T17:55:35.736Z,13.65
2023-11-05T17:58:03.020Z,13.62
2023-11-05T18:00:30.111Z,13.56
2023-11-05T18:02:57.900Z,13.55
2023-11-05T18:05:25.497Z,13.54
2023-11-05T18:07:54.187Z,13.52
2023-11-05T18:10:21.178Z,13.52
2023-11-05T18:12:48.246Z,13.49
2023-11-05T18:15:15.327Z,13.50
2023-11-05T18:17:42.775Z,13.49
2023-11-05T18:20:13.307Z,13.47
2023-11-05T18:22:41.334Z,13.47
2023-11-05T18:25:08.669Z,13.45
2023-11-05T18:27:35.743Z,13.42
2023-11-05T18:30:04.599Z,13.40
2023-11-05T18:32:33.351Z,13.33
2023-11-05T18:35:00.552Z,13.29
2023-11-05T18:37:27.666Z,13.23
2023-11-05T18:39:54.720Z,13.24
2023-11-05T18:42:21.839Z,13.22
2023-11-05T18:44:49.172Z,13.19
2023-11-05T18:47:16.344Z,13.16
2023-11-05T18:49:46.136Z,13.14
2023-11-05T18:52:15.979Z,13.13
2023-11-05T18:54:43.336Z,13.10
2023-11-05T18:57:12.290Z,13.09
2023-11-05T18:59:39.678Z,13.06
2023-11-05T19:02:06.801Z,13.05
2023-11-05T19:04:34.262Z,13.01
2023-11-05T19:07:10.507Z,12.96
2023-11-05T19:09:37.967Z,12.93
2023-11-05T19:12:05.831Z,12.91
2023-11-05T19:14:33.020Z,12.91
2023-11-05T19:17:00.197Z,12.90
2023-11-05T19:19:27.704Z,12.89
2023-11-05T19:21:54.820Z,12.86
2023-11-05T19:24:22.886Z,12.83
2023-11-05T19:26:50.249Z,12.83
2023-11-05T19:29:18.902Z,12.83
2023-11-05T19:31:49.583Z,12.83
2023-11-05T19:34:16.746Z,12.83
2023-11-05T19:36:45.137Z,12.81
2023-11-05T19:39:12.347Z,12.81
2023-11-05T19:41:41.246Z,12.82
2023-11-05T19:44:13.334Z,12.79
2023-11-05T19:46:45.711Z,12.82
2023-11-05T19:49:12.946Z,12.82
2023-11-05T19:51:40.120Z,12.86
2023-11-05T19:54:09.191Z,12.90
2023-11-05T19:56:36.434Z,12.94
2023-11-05T19:59:07.772Z,12.98
2023-11-05T20:01:35.338Z,13.01
2023-11-05T20:04:03.102Z,13.02
2023-11-05T20:06:30.906Z,13.02
2023-11-05T20:09:01.621Z,13.03
2023-11-05T20:11:30.356Z,13.04
2023-11-05T20:13:57.672Z,13.08
2023-11-05T20:16:25.311Z,13.09
2023-11-05T20:18:52.549Z,13.10
2023-11-05T20:21:20.135Z,13.10
2023-11-05T20:23:47.614Z,13.06
2023-11-05T20:26:14.822Z,13.05
2023-11-05T20:28:42.798Z,13.04
2023-11-05T20:31:11.020Z,13.04
2023-11-05T20:33:38.254Z,13.05
2023-11-05T20:36:06.639Z,13.07
2023-11-05T20:38:34.217Z,13.08
2023-11-05T20:41:01.414Z,13.06
2023-11-05T20:43:29.471Z,13.04
2023-11-05T20:45:56.642Z,13.03
2023-11-05T20:48:24.466Z,13.03
2023-11-05T20:50:51.559Z,13.03
2023-11-05T20:53:19.023Z,13.00
2023-11-05T20:55:46.443Z,12.97
2023-11-05T20:58:13.529Z,12.90
2023-11-05T21:00:40.640Z,12.86
2023-11-05T21:03:07.856Z,12.84
2023-11-05T21:05:37.050Z,12.79
2023-11-05T21:08:05.736Z,12.73
2023-11-05T21:10:40.474Z,12.69
2023-11-05T21:13:14.395Z,12.62
2023-11-05T21:15:42.227Z,12.55
2023-11-05T21:18:10.069Z,12.52
2023-11-05T21:20:37.266Z,12.48
2023-11-05T21:23:07.634Z,12.44
2023-11-05T21:25:35.004Z,12.38
2023-11-05T21:28:02.017Z,12.36
2023-11-05T21:30:29.094Z,12.34
2023-11-05T21:32:58.291Z,12.32
2023-11-05T21:35:26.050Z,12.32
2023-11-05T21:37:53.258Z,12.32
2023-11-05T21:40:22.545Z,12.31
2023-11-05T21:42:50.313Z,12.31
2023-11-05T21:45:20.177Z,12.32
2023-11-05T21:47:48.664Z,12.30
2023-11-05T21:50:16.027Z,12.28
2023-11-05T21:52:43.426Z,12.23
2023-11-05T21:55:10.684Z,12.21
2023-11-05T21:57:38.027Z,12.22
2023-11-05T22:00:06.806Z,12.22
2023-11-05T22:02:36.715Z,12.23
2023-11-05T22:05:07.051Z,12.24
2023-11-05T22:07:34.497Z,12.25
2023-11-05T22:10:04.132Z,12.25
2023-11-05T22:12:31.985Z,12.25
2023-11-05T22:15:00.112Z,12.24
2023-11-05T22:17:27.164Z,12.22
2023-11-05T22:19:55.135Z,12.21
2023-11-05T22:22:23.432Z,12.20
2023-11-05T22:24:53.048Z,12.19
2023-11-05T22:27:20.474Z,12.20
2023-11-05T22:29:47.879Z,12.19
2023-11-05T22:32:16.772Z,12.17
2023-11-05T22:34:44.548Z,12.18
2023-11-05T22:37:11.759Z,12.17
2023-11-05T22:39:39.500Z,12.18
2023-11-05T22:42:07.345Z,12.18
2023-11-05T22:44:34.371Z,12.16
2023-11-05T22:47:02.188Z,12.14
2023-11-05T22:49:29.323Z,12.09
2023-11-05T22:51:56.462Z,12.07
2023-11-05T22:54:24.134Z,12.04
2023-11-05T22:56:51.447Z,12.01
2023-11-05T22:59:18.682Z,11.98
2023-11-05T23:01:46.910Z,11.95
2023-11-05T23:04:19.295Z,11.92
2023-11-05T23:06:49.520Z,11.89
2023-11-05T23:09:19.984Z,11.84
2023-11-05T23:11:47.606Z,11.81
2023-11-05T23:14:17.162Z,11.79
2023-11-05T23:16:44.364Z,11.77
2023-11-05T23:19:11.998Z,11.68
2023-11-05T23:21:39.890Z,11.64
2023-11-05T23:24:08.739Z,11.62
2023-11-05T23:26:36.015Z,11.61
2023-11-05T23:29:03.134Z,11.58
2023-11-05T23:31:30.935Z,11.57
2023-11-05T23:33:58.073Z,11.56
2023-11-05T23:36:25.412Z,11.51
2023-11-05T23:38:52.389Z,11.47
2023-11-05T23:41:22.567Z,11.40
2023-11-05T23:43:49.896Z,11.37
2023-11-05T23:46:17.773Z,11.30
2023-11-05T23:48:44.926Z,11.27
2023-11-05T23:51:11.911Z,11.24
2023-11-05T23:53:38.868Z,11.21
2023-11-05T23:56:06.440Z,11.18
2023-11-05T23:58:33.650Z,11.19
